sensor_id;sensor_type;location;lat;lon;timestamp;pressure;altitude;pressure_sealevel;temperature;humidity
59043;BME280;44826;51.596;5.624;2022-08-21T00:00:38;101610.06;;;15.38;74.18
59043;BME280;44826;51.596;5.624;2022-08-21T00:03:06;101612.69;;;15.38;73.62
59043;BME280;44826;51.596;5.624;2022-08-21T00:05:33;101617.03;;;15.39;73.58
59043;BME280;44826;51.596;5.624;2022-08-21T00:08:00;101622.41;;;15.36;74.21
59043;BME280;44826;51.596;5.624;2022-08-21T00:10:25;101613.72;;;15.33;74.20
59043;BME280;44826;51.596;5.624;2022-08-21T00:12:51;101612.84;;;15.33;74.26
59043;BME280;44826;51.596;5.624;2022-08-21T00:15:22;101611.13;;;15.32;73.91
59043;BME280;44826;51.596;5.624;2022-08-21T00:17:48;101606.69;;;15.34;74.11
59043;BME280;44826;51.596;5.624;2022-08-21T00:20:16;101610.28;;;15.31;73.95
59043;BME280;44826;51.596;5.624;2022-08-21T00:22:41;101613.84;;;15.29;74.18
59043;BME280;44826;51.596;5.624;2022-08-21T00:25:08;101604.44;;;15.23;74.58
59043;BME280;44826;51.596;5.624;2022-08-21T00:27:34;101606.25;;;15.21;74.40
59043;BME280;44826;51.596;5.624;2022-08-21T00:29:59;101611.47;;;15.21;74.63
59043;BME280;44826;51.596;5.624;2022-08-21T00:32:26;101604.66;;;15.17;74.89
59043;BME280;44826;51.596;5.624;2022-08-21T00:34:53;101607.28;;;15.17;75.09
59043;BME280;44826;51.596;5.624;2022-08-21T00:37:18;101602.06;;;15.15;74.94
59043;BME280;44826;51.596;5.624;2022-08-21T00:39:44;101598.59;;;15.15;74.72
59043;BME280;44826;51.596;5.624;2022-08-21T00:42:11;101596.00;;;15.13;74.75
59043;BME280;44826;51.596;5.624;2022-08-21T00:44:43;101597.78;;;15.13;75.25
59043;BME280;44826;51.596;5.624;2022-08-21T00:47:09;101593.56;;;15.09;75.20
59043;BME280;44826;51.596;5.624;2022-08-21T00:49:35;101590.13;;;15.07;75.22
59043;BME280;44826;51.596;5.624;2022-08-21T00:52:03;101594.56;;;15.05;75.11
59043;BME280;44826;51.596;5.624;2022-08-21T00:54:31;101593.78;;;15.02;75.01
59043;BME280;44826;51.596;5.624;2022-08-21T00:57:01;101599.00;;;15.02;74.81
59043;BME280;44826;51.596;5.624;2022-08-21T00:59:28;101597.31;;;15.00;74.67
59043;BME280;44826;51.596;5.624;2022-08-21T01:01:54;101593.91;;;14.98;74.69
59043;BME280;44826;51.596;5.624;2022-08-21T01:04:20;101594.84;;;14.95;75.32
59043;BME280;44826;51.596;5.624;2022-08-21T01:06:45;101598.44;;;14.93;75.69
59043;BME280;44826;51.596;5.624;2022-08-21T01:09:12;101591.53;;;14.90;75.77
59043;BME280;44826;51.596;5.624;2022-08-21T01:11:38;101597.63;;;14.91;75.50
59043;BME280;44826;51.596;5.624;2022-08-21T01:14:04;101596.75;;;14.90;75.91
59043;BME280;44826;51.596;5.624;2022-08-21T01:16:30;101594.19;;;14.89;75.42
59043;BME280;44826;51.596;5.624;2022-08-21T01:18:55;101593.31;;;14.88;75.73
59043;BME280;44826;51.596;5.624;2022-08-21T01:21:23;101605.53;;;14.89;75.22
59043;BME280;44826;51.596;5.624;2022-08-21T01:23:52;101605.53;;;14.89;75.12
59043;BME280;44826;51.596;5.624;2022-08-21T01:26:22;101600.34;;;14.87;75.13
59043;BME280;44826;51.596;5.624;2022-08-21T01:28:55;101592.50;;;14.86;74.90
59043;BME280;44826;51.596;5.624;2022-08-21T01:31:23;101595.25;;;14.83;75.25
59043;BME280;44826;51.596;5.624;2022-08-21T01:33:49;101590.94;;;14.82;75.01
59043;BME280;44826;51.596;5.624;2022-08-21T01:36:14;101590.09;;;14.80;75.17
59043;BME280;44826;51.596;5.624;2022-08-21T01:38:40;101591.06;;;14.77;75.37
59043;BME280;44826;51.596;5.624;2022-08-21T01:41:05;101590.28;;;14.74;75.38
59043;BME280;44826;51.596;5.624;2022-08-21T01:43:30;101603.47;;;14.70;75.17
59043;BME280;44826;51.596;5.624;2022-08-21T01:45:56;101590.47;;;14.67;75.45
59043;BME280;44826;51.596;5.624;2022-08-21T01:48:21;101595.88;;;14.61;74.95
59043;BME280;44826;51.596;5.624;2022-08-21T01:50:46;101593.44;;;14.55;75.07
59043;BME280;44826;51.596;5.624;2022-08-21T01:53:12;101592.63;;;14.53;75.58
59043;BME280;44826;51.596;5.624;2022-08-21T01:55:38;101589.22;;;14.51;76.12
59043;BME280;44826;51.596;5.624;2022-08-21T01:58:03;101592.78;;;14.48;76.22
59043;BME280;44826;51.596;5.624;2022-08-21T02:00:29;101589.34;;;14.46;76.26
59043;BME280;44826;51.596;5.624;2022-08-21T02:02:54;101587.63;;;14.45;76.33
59043;BME280;44826;51.596;5.624;2022-08-21T02:05:21;101582.44;;;14.44;76.27
59043;BME280;44826;51.596;5.624;2022-08-21T02:07:49;101579.84;;;14.44;76.05
59043;BME280;44826;51.596;5.624;2022-08-21T02:10:19;101579.00;;;14.43;76.09
59043;BME280;44826;51.596;5.624;2022-08-21T02:12:45;101579.09;;;14.38;75.88
59043;BME280;44826;51.596;5.624;2022-08-21T02:15:11;101576.53;;;14.37;75.80
59043;BME280;44826;51.596;5.624;2022-08-21T02:17:41;101567.94;;;14.33;75.97
59043;BME280;44826;51.596;5.624;2022-08-21T02:20:08;101566.25;;;14.31;76.07
59043;BME280;44826;51.596;5.624;2022-08-21T02:22:34;101570.78;;;14.25;75.90
59043;BME280;44826;51.596;5.624;2022-08-21T02:24:59;101569.19;;;14.20;76.18
59043;BME280;44826;51.596;5.624;2022-08-21T02:27:25;101564.97;;;14.16;76.40
59043;BME280;44826;51.596;5.624;2022-08-21T02:29:50;101567.59;;;14.14;76.55
59043;BME280;44826;51.596;5.624;2022-08-21T02:32:15;101563.25;;;14.13;76.42
59043;BME280;44826;51.596;5.624;2022-08-21T02:34:40;101564.31;;;14.07;76.35
59043;BME280;44826;51.596;5.624;2022-08-21T02:37:06;101559.16;;;14.04;76.33
59043;BME280;44826;51.596;5.624;2022-08-21T02:39:31;101557.44;;;14.03;76.63
59043;BME280;44826;51.596;5.624;2022-08-21T02:41:56;101552.22;;;14.03;76.47
59043;BME280;44826;51.596;5.624;2022-08-21T02:44:22;101557.44;;;14.03;76.18
59043;BME280;44826;51.596;5.624;2022-08-21T02:46:47;101554.00;;;14.01;76.46
59043;BME280;44826;51.596;5.624;2022-08-21T02:49:12;101558.47;;;13.98;76.39
59043;BME280;44826;51.596;5.624;2022-08-21T02:51:38;101558.56;;;13.94;76.71
59043;BME280;44826;51.596;5.624;2022-08-21T02:54:03;101556.00;;;13.93;77.09
59043;BME280;44826;51.596;5.624;2022-08-21T02:56:28;101555.19;;;13.91;76.42
59043;BME280;44826;51.596;5.624;2022-08-21T02:58:54;101551.72;;;13.90;76.59
59043;BME280;44826;51.596;5.624;2022-08-21T03:01:19;101549.13;;;13.89;76.60
59043;BME280;44826;51.596;5.624;2022-08-21T03:03:46;101545.63;;;13.90;76.42
59043;BME280;44826;51.596;5.624;2022-08-21T03:06:15;101537.03;;;13.85;76.40
59043;BME280;44826;51.596;5.624;2022-08-21T03:08:42;101542.38;;;13.81;76.41
59043;BME280;44826;51.596;5.624;2022-08-21T03:11:10;101544.31;;;13.75;75.89
59043;BME280;44826;51.596;5.624;2022-08-21T03:13:35;101547.00;;;13.72;76.14
59043;BME280;44826;51.596;5.624;2022-08-21T03:16:01;101547.97;;;13.68;76.30
59043;BME280;44826;51.596;5.624;2022-08-21T03:18:26;101542.88;;;13.63;76.55
59043;BME280;44826;51.596;5.624;2022-08-21T03:20:52;101548.13;;;13.61;76.95
59043;BME280;44826;51.596;5.624;2022-08-21T03:23:17;101543.81;;;13.60;78.00
59043;BME280;44826;51.596;5.624;2022-08-21T03:25:45;101544.69;;;13.61;78.52
59043;BME280;44826;51.596;5.624;2022-08-21T03:28:13;101547.22;;;13.64;78.83
59043;BME280;44826;51.596;5.624;2022-08-21T03:30:44;101547.09;;;13.67;78.39
59043;BME280;44826;51.596;5.624;2022-08-21T03:33:10;101547.94;;;13.69;77.44
59043;BME280;44826;51.596;5.624;2022-08-21T03:35:35;101550.50;;;13.71;77.19
59043;BME280;44826;51.596;5.624;2022-08-21T03:38:00;101546.22;;;13.68;77.09
59043;BME280;44826;51.596;5.624;2022-08-21T03:40:26;101545.41;;;13.66;76.81
59043;BME280;44826;51.596;5.624;2022-08-21T03:42:51;101548.13;;;13.63;76.74
59043;BME280;44826;51.596;5.624;2022-08-21T03:45:18;101547.28;;;13.61;76.80
59043;BME280;44826;51.596;5.624;2022-08-21T03:48:13;101543.84;;;13.59;75.90
59043;BME280;44826;51.596;5.624;2022-08-21T03:50:42;101541.41;;;13.53;76.87
59043;BME280;44826;51.596;5.624;2022-08-21T03:53:09;101544.91;;;13.51;77.07
59043;BME280;44826;51.596;5.624;2022-08-21T03:55:35;101542.41;;;13.48;76.85
59043;BME280;44826;51.596;5.624;2022-08-21T03:58:00;101538.97;;;13.46;76.93
59043;BME280;44826;51.596;5.624;2022-08-21T04:00:26;101548.59;;;13.44;77.23
59043;BME280;44826;51.596;5.624;2022-08-21T04:02:52;101544.28;;;13.42;76.96
59043;BME280;44826;51.596;5.624;2022-08-21T04:05:18;101536.50;;;13.40;76.98
59043;BME280;44826;51.596;5.624;2022-08-21T04:07:53;101541.78;;;13.37;76.74
59043;BME280;44826;51.596;5.624;2022-08-21T04:10:19;101546.22;;;13.33;77.85
59043;BME280;44826;51.596;5.624;2022-08-21T04:12:44;101544.53;;;13.32;78.20
59043;BME280;44826;51.596;5.624;2022-08-21T04:15:10;101546.22;;;13.33;78.73
59043;BME280;44826;51.596;5.624;2022-08-21T04:17:35;101542.72;;;13.34;78.87
59043;BME280;44826;51.596;5.624;2022-08-21T04:20:01;101535.72;;;13.35;78.77
59043;BME280;44826;51.596;5.624;2022-08-21T04:22:26;101540.06;;;13.36;79.05
59043;BME280;44826;51.596;5.624;2022-08-21T04:24:51;101535.72;;;13.36;78.91
59043;BME280;44826;51.596;5.624;2022-08-21T04:27:17;101534.00;;;13.35;79.12
59043;BME280;44826;51.596;5.624;2022-08-21T04:29:42;101541.78;;;13.37;78.96
59043;BME280;44826;51.596;5.624;2022-08-21T04:32:07;101541.78;;;13.37;78.89
59043;BME280;44826;51.596;5.624;2022-08-21T04:34:33;101542.66;;;13.36;79.30
59043;BME280;44826;51.596;5.624;2022-08-21T04:36:58;101548.78;;;13.35;79.02
59043;BME280;44826;51.596;5.624;2022-08-21T04:39:23;101555.78;;;13.34;78.63
59043;BME280;44826;51.596;5.624;2022-08-21T04:41:48;101548.84;;;13.33;78.68
59043;BME280;44826;51.596;5.624;2022-08-21T04:44:14;101552.31;;;13.34;78.96
59043;BME280;44826;51.596;5.624;2022-08-21T04:46:39;101553.19;;;13.34;78.81
59043;BME280;44826;51.596;5.624;2022-08-21T04:49:05;101554.91;;;13.35;78.72
59043;BME280;44826;51.596;5.624;2022-08-21T04:51:36;101565.28;;;13.37;78.49
59043;BME280;44826;51.596;5.624;2022-08-21T04:54:17;101567.88;;;13.40;78.39
59043;BME280;44826;51.596;5.624;2022-08-21T04:56:59;101568.75;;;13.41;78.57
59043;BME280;44826;51.596;5.624;2022-08-21T04:59:32;101566.06;;;13.42;78.86
59043;BME280;44826;51.596;5.624;2022-08-21T05:01:59;101561.75;;;13.41;78.87
59043;BME280;44826;51.596;5.624;2022-08-21T05:04:29;101560.84;;;13.42;78.81
59043;BME280;44826;51.596;5.624;2022-08-21T05:06:58;101566.00;;;13.45;79.02
59043;BME280;44826;51.596;5.624;2022-08-21T05:09:25;101570.34;;;13.45;78.89
59043;BME280;44826;51.596;5.624;2022-08-21T05:11:51;101570.34;;;13.46;79.17
59043;BME280;44826;51.596;5.624;2022-08-21T05:14:18;101567.63;;;13.49;79.10
59043;BME280;44826;51.596;5.624;2022-08-21T05:16:44;101572.78;;;13.53;79.21
59043;BME280;44826;51.596;5.624;2022-08-21T05:19:10;101569.22;;;13.55;78.90
59043;BME280;44826;51.596;5.624;2022-08-21T05:21:37;101576.13;;;13.58;79.01
59043;BME280;44826;51.596;5.624;2022-08-21T05:24:03;101576.06;;;13.61;79.18
59043;BME280;44826;51.596;5.624;2022-08-21T05:26:28;101580.31;;;13.65;79.00
59043;BME280;44826;51.596;5.624;2022-08-21T05:28:55;101574.97;;;13.68;79.20
59043;BME280;44826;51.596;5.624;2022-08-21T05:31:20;101577.50;;;13.71;79.20
59043;BME280;44826;51.596;5.624;2022-08-21T05:33:45;101572.16;;;13.76;79.21
59043;BME280;44826;51.596;5.624;2022-08-21T05:36:10;101577.28;;;13.80;79.39
59043;BME280;44826;51.596;5.624;2022-08-21T05:38:36;101571.84;;;13.87;79.31
59043;BME280;44826;51.596;5.624;2022-08-21T05:41:01;101576.94;;;13.93;79.03
59043;BME280;44826;51.596;5.624;2022-08-21T05:43:26;101583.78;;;13.97;79.11
59043;BME280;44826;51.596;5.624;2022-08-21T05:45:51;101584.50;;;14.02;78.92
59043;BME280;44826;51.596;5.624;2022-08-21T05:48:21;101587.00;;;14.07;78.88
59043;BME280;44826;51.596;5.624;2022-08-21T05:50:49;101590.38;;;14.10;78.85
59043;BME280;44826;51.596;5.624;2022-08-21T05:55:40;101589.19;;;14.22;79.19
59043;BME280;44826;51.596;5.624;2022-08-21T05:58:06;101598.63;;;14.28;78.96
59043;BME280;44826;51.596;5.624;2022-08-21T06:00:32;101591.50;;;14.33;79.12
59043;BME280;44826;51.596;5.624;2022-08-21T06:02:58;101593.97;;;14.38;78.93
59043;BME280;44826;51.596;5.624;2022-08-21T06:05:24;101596.44;;;14.42;79.02
59043;BME280;44826;51.596;5.624;2022-08-21T06:07:50;101597.16;;;14.48;78.60
59043;BME280;44826;51.596;5.624;2022-08-21T06:10:16;101592.63;;;14.53;78.58
59043;BME280;44826;51.596;5.624;2022-08-21T06:12:41;101593.34;;;14.58;78.68
59043;BME280;44826;51.596;5.624;2022-08-21T06:15:07;101597.50;;;14.65;78.87
59043;BME280;44826;51.596;5.624;2022-08-21T06:17:33;101594.78;;;14.70;78.32
59043;BME280;44826;51.596;5.624;2022-08-21T06:19:58;101597.25;;;14.75;77.80
59043;BME280;44826;51.596;5.624;2022-08-21T06:22:23;101593.63;;;14.79;77.80
59043;BME280;44826;51.596;5.624;2022-08-21T06:24:49;101590.84;;;14.85;78.20
59043;BME280;44826;51.596;5.624;2022-08-21T06:27:14;101596.75;;;14.90;78.63
59043;BME280;44826;51.596;5.624;2022-08-21T06:29:40;101593.09;;;14.96;78.78
59043;BME280;44826;51.596;5.624;2022-08-21T06:32:06;101596.38;;;15.02;78.64
59043;BME280;44826;51.596;5.624;2022-08-21T06:34:36;101600.59;;;15.07;79.34
59043;BME280;44826;51.596;5.624;2022-08-21T06:37:01;101596.91;;;15.12;78.50
59043;BME280;44826;51.596;5.624;2022-08-21T06:39:26;101602.84;;;15.19;78.29
59043;BME280;44826;51.596;5.624;2022-08-21T06:41:52;101595.66;;;15.24;78.00
59043;BME280;44826;51.596;5.624;2022-08-21T06:44:17;101592.03;;;15.28;78.41
59043;BME280;44826;51.596;5.624;2022-08-21T06:46:43;101579.63;;;15.33;78.16
59043;BME280;44826;51.596;5.624;2022-08-21T06:49:08;101589.06;;;15.39;78.46
59043;BME280;44826;51.596;5.624;2022-08-21T06:51:33;101587.97;;;15.45;78.90
59043;BME280;44826;51.596;5.624;2022-08-21T06:53:59;101598.22;;;15.53;78.59
59043;BME280;44826;51.596;5.624;2022-08-21T06:56:24;101595.31;;;15.60;78.52
59043;BME280;44826;51.596;5.624;2022-08-21T06:58:49;101598.53;;;15.69;77.43
59043;BME280;44826;51.596;5.624;2022-08-21T07:01:15;101597.56;;;15.71;77.00
59043;BME280;44826;51.596;5.624;2022-08-21T07:03:42;101601.75;;;15.77;76.46
59043;BME280;44826;51.596;5.624;2022-08-21T07:06:10;101593.69;;;15.82;77.68
59043;BME280;44826;51.596;5.624;2022-08-21T07:08:36;101591.81;;;15.87;76.91
59043;BME280;44826;51.596;5.624;2022-08-21T07:11:08;101590.72;;;15.92;77.06
59043;BME280;44826;51.596;5.624;2022-08-21T07:13:34;101595.81;;;15.97;76.94
59043;BME280;44826;51.596;5.624;2022-08-21T07:16:00;101585.16;;;16.02;76.95
59043;BME280;44826;51.596;5.624;2022-08-21T07:18:26;101585.81;;;16.07;75.92
59043;BME280;44826;51.596;5.624;2022-08-21T07:20:51;101586.47;;;16.14;77.37
59043;BME280;44826;51.596;5.624;2022-08-21T07:23:40;101587.91;;;16.22;76.76
59043;BME280;44826;51.596;5.624;2022-08-21T07:26:07;101581.50;;;16.30;76.81
59043;BME280;44826;51.596;5.624;2022-08-21T07:28:33;101576.00;;;16.36;76.74
59043;BME280;44826;51.596;5.624;2022-08-21T07:31:00;101582.72;;;16.43;76.77
59043;BME280;44826;51.596;5.624;2022-08-21T07:33:27;101584.13;;;16.52;76.95
59043;BME280;44826;51.596;5.624;2022-08-21T07:35:53;101581.28;;;16.58;76.56
59043;BME280;44826;51.596;5.624;2022-08-21T07:38:18;101576.63;;;16.65;76.62
59043;BME280;44826;51.596;5.624;2022-08-21T07:40:45;101581.66;;;16.71;76.25
59043;BME280;44826;51.596;5.624;2022-08-21T07:43:10;101578.84;;;16.76;76.33
59043;BME280;44826;51.596;5.624;2022-08-21T07:45:36;101581.34;;;16.79;76.68
59043;BME280;44826;51.596;5.624;2022-08-21T07:48:01;101582.16;;;16.81;77.40
59043;BME280;44826;51.596;5.624;2022-08-21T07:50:27;101584.72;;;16.82;76.51
59043;BME280;44826;51.596;5.624;2022-08-21T07:52:52;101581.03;;;16.87;77.20
59043;BME280;44826;51.596;5.624;2022-08-21T07:55:18;101587.75;;;16.94;76.41
59043;BME280;44826;51.596;5.624;2022-08-21T07:57:45;101586.63;;;17.01;76.78
59043;BME280;44826;51.596;5.624;2022-08-21T08:00:15;101578.63;;;17.04;75.94
59043;BME280;44826;51.596;5.624;2022-08-21T08:02:44;101587.16;;;17.09;76.41
59043;BME280;44826;51.596;5.624;2022-08-21T08:05:11;101575.53;;;17.15;76.28
59043;BME280;44826;51.596;5.624;2022-08-21T08:07:37;101579.63;;;17.22;75.47
59043;BME280;44826;51.596;5.624;2022-08-21T08:10:04;101576.72;;;17.28;76.08
59043;BME280;44826;51.596;5.624;2022-08-21T08:12:32;101570.34;;;17.34;76.87
59043;BME280;44826;51.596;5.624;2022-08-21T08:14:59;101575.38;;;17.40;75.73
59043;BME280;44826;51.596;5.624;2022-08-21T08:17:27;101582.13;;;17.46;74.64
59043;BME280;44826;51.596;5.624;2022-08-21T08:19:53;101585.34;;;17.53;74.54
59043;BME280;44826;51.596;5.624;2022-08-21T08:22:22;101578.88;;;17.60;74.86
59043;BME280;44826;51.596;5.624;2022-08-21T08:24:49;101588.22;;;17.67;75.00
59043;BME280;44826;51.596;5.624;2022-08-21T08:27:15;101582.72;;;17.73;74.44
59043;BME280;44826;51.596;5.624;2022-08-21T08:29:42;101592.94;;;17.80;73.85
59043;BME280;44826;51.596;5.624;2022-08-21T08:32:07;101574.34;;;17.84;73.35
59043;BME280;44826;51.596;5.624;2022-08-21T08:34:34;101571.50;;;17.89;74.00
59043;BME280;44826;51.596;5.624;2022-08-21T08:36:59;101573.06;;;17.93;74.18
59043;BME280;44826;51.596;5.624;2022-08-21T08:39:25;101567.50;;;18.01;74.60
59043;BME280;44826;51.596;5.624;2022-08-21T08:41:58;101566.28;;;18.08;74.28
59043;BME280;44826;51.596;5.624;2022-08-21T08:44:24;101571.84;;;18.21;73.44
59043;BME280;44826;51.596;5.624;2022-08-21T08:46:50;101565.41;;;18.27;71.96
59043;BME280;44826;51.596;5.624;2022-08-21T08:49:27;101555.44;;;18.33;72.02
59043;BME280;44826;51.596;5.624;2022-08-21T08:52:18;101559.38;;;18.44;72.36
59043;BME280;44826;51.596;5.624;2022-08-21T08:54:51;101560.50;;;18.57;71.55
59043;BME280;44826;51.596;5.624;2022-08-21T08:57:22;101546.00;;;18.66;71.77
59043;BME280;44826;51.596;5.624;2022-08-21T08:59:56;101551.69;;;18.76;71.75
59043;BME280;44826;51.596;5.624;2022-08-21T09:02:23;101554.78;;;18.84;70.32
59043;BME280;44826;51.596;5.624;2022-08-21T09:04:50;101548.59;;;18.85;69.80
59043;BME280;44826;51.596;5.624;2022-08-21T09:07:34;101551.06;;;18.88;69.28
59043;BME280;44826;51.596;5.624;2022-08-21T09:10:19;101535.16;;;18.90;69.03
59043;BME280;44826;51.596;5.624;2022-08-21T09:12:59;101540.38;;;18.91;69.44
59043;BME280;44826;51.596;5.624;2022-08-21T09:15:50;101541.16;;;18.93;69.72
59043;BME280;44826;51.596;5.624;2022-08-21T09:18:47;101536.81;;;18.92;68.93
59043;BME280;44826;51.596;5.624;2022-08-21T09:21:30;101539.59;;;18.89;67.89
59043;BME280;44826;51.596;5.624;2022-08-21T09:24:25;101539.38;;;18.94;67.80
59043;BME280;44826;51.596;5.624;2022-08-21T09:27:09;101538.22;;;19.00;68.75
59043;BME280;44826;51.596;5.624;2022-08-21T09:29:43;101531.78;;;19.05;67.38
59043;BME280;44826;51.596;5.624;2022-08-21T09:32:27;101543.84;;;19.11;67.81
59043;BME280;44826;51.596;5.624;2022-08-21T09:35:18;101543.50;;;19.17;65.85
59043;BME280;44826;51.596;5.624;2022-08-21T09:37:55;101547.56;;;19.24;66.42
59043;BME280;44826;51.596;5.624;2022-08-21T09:43:01;101541.56;;;19.38;62.96
59043;BME280;44826;51.596;5.624;2022-08-21T09:45:27;101545.72;;;19.42;62.63
59043;BME280;44826;51.596;5.624;2022-08-21T09:47:53;101543.81;;;19.46;62.94
59043;BME280;44826;51.596;5.624;2022-08-21T09:50:25;101542.63;;;19.52;63.52
59043;BME280;44826;51.596;5.624;2022-08-21T09:52:55;101545.69;;;19.60;63.59
59043;BME280;44826;51.596;5.624;2022-08-21T09:58:14;101542.09;;;19.79;62.91
59043;BME280;44826;51.596;5.624;2022-08-21T10:00:40;101542.88;;;19.81;60.16
59043;BME280;44826;51.596;5.624;2022-08-21T10:05:40;101537.66;;;19.97;60.58
59043;BME280;44826;51.596;5.624;2022-08-21T10:08:20;101544.03;;;20.09;60.81
59043;BME280;44826;51.596;5.624;2022-08-21T10:10:50;101541.91;;;20.15;59.36
59043;BME280;44826;51.596;5.624;2022-08-21T10:13:21;101542.34;;;20.24;62.83
59043;BME280;44826;51.596;5.624;2022-08-21T10:15:54;101542.19;;;20.27;59.55
59043;BME280;44826;51.596;5.624;2022-08-21T10:21:06;101541.81;;;20.33;59.68
59043;BME280;44826;51.596;5.624;2022-08-21T10:23:44;101535.03;;;20.29;59.10
59043;BME280;44826;51.596;5.624;2022-08-21T10:34:59;101543.53;;;20.34;60.02
59043;BME280;44826;51.596;5.624;2022-08-21T10:37:31;101542.50;;;20.37;58.62
59043;BME280;44826;51.596;5.624;2022-08-21T10:40:09;101532.44;;;20.43;58.37
59043;BME280;44826;51.596;5.624;2022-08-21T10:42:49;101530.19;;;20.52;56.92
59043;BME280;44826;51.596;5.624;2022-08-21T10:45:48;101530.63;;;20.60;59.32
59043;BME280;44826;51.596;5.624;2022-08-21T10:48:36;101532.94;;;20.66;57.83
59043;BME280;44826;51.596;5.624;2022-08-21T10:51:14;101541.44;;;20.71;57.02
59043;BME280;44826;51.596;5.624;2022-08-21T10:53:52;101532.06;;;20.82;57.54
59043;BME280;44826;51.596;5.624;2022-08-21T10:56:25;101533.41;;;20.89;55.69
59043;BME280;44826;51.596;5.624;2022-08-21T10:59:02;101526.91;;;20.95;56.57
59043;BME280;44826;51.596;5.624;2022-08-21T11:01:42;101536.09;;;21.03;57.25
59043;BME280;44826;51.596;5.624;2022-08-21T11:04:16;101524.22;;;21.11;55.48
59043;BME280;44826;51.596;5.624;2022-08-21T11:06:49;101524.59;;;21.19;56.29
59043;BME280;44826;51.596;5.624;2022-08-21T11:09:20;101531.41;;;21.23;54.85
59043;BME280;44826;51.596;5.624;2022-08-21T11:11:52;101523.00;;;21.31;55.30
59043;BME280;44826;51.596;5.624;2022-08-21T11:17:27;101525.38;;;21.35;53.89
59043;BME280;44826;51.596;5.624;2022-08-21T11:22:40;101526.22;;;21.36;55.56
59043;BME280;44826;51.596;5.624;2022-08-21T11:25:11;101535.78;;;21.38;54.40
59043;BME280;44826;51.596;5.624;2022-08-21T11:27:43;101518.00;;;21.41;54.76
59043;BME280;44826;51.596;5.624;2022-08-21T11:30:11;101522.28;;;21.43;54.22
59043;BME280;44826;51.596;5.624;2022-08-21T11:35:45;101522.75;;;21.50;54.71
59043;BME280;44826;51.596;5.624;2022-08-21T11:38:26;101519.34;;;21.48;52.83
59043;BME280;44826;51.596;5.624;2022-08-21T11:41:31;101510.47;;;21.49;54.61
59043;BME280;44826;51.596;5.624;2022-08-21T11:44:13;101517.47;;;21.50;53.47
59043;BME280;44826;51.596;5.624;2022-08-21T11:46:49;101506.47;;;21.56;53.85
59043;BME280;44826;51.596;5.624;2022-08-21T11:52:02;101508.59;;;21.65;53.79
59043;BME280;44826;51.596;5.624;2022-08-21T11:55:17;101514.44;;;21.71;53.39
59043;BME280;44826;51.596;5.624;2022-08-21T11:57:40;101518.41;;;21.78;54.43
59043;BME280;44826;51.596;5.624;2022-08-21T12:02:48;101522.59;;;21.82;52.21
59043;BME280;44826;51.596;5.624;2022-08-21T12:10:37;101529.84;;;21.93;50.87
59043;BME280;44826;51.596;5.624;2022-08-21T12:13:07;101529.00;;;21.92;50.43
59043;BME280;44826;51.596;5.624;2022-08-21T12:15:34;101535.03;;;21.94;49.46
59043;BME280;44826;51.596;5.624;2022-08-21T12:18:05;101532.03;;;22.01;50.39
59043;BME280;44826;51.596;5.624;2022-08-21T12:23:03;101527.63;;;22.14;52.98
59043;BME280;44826;51.596;5.624;2022-08-21T12:25:38;101531.41;;;22.10;50.98
59043;BME280;44826;51.596;5.624;2022-08-21T12:28:13;101532.03;;;22.01;50.67
59043;BME280;44826;51.596;5.624;2022-08-21T12:30:42;101530.50;;;21.96;49.68
59043;BME280;44826;51.596;5.624;2022-08-21T12:33:31;101532.22;;;21.97;51.05
59043;BME280;44826;51.596;5.624;2022-08-21T12:36:17;101522.63;;;21.95;50.75
59043;BME280;44826;51.596;5.624;2022-08-21T12:41:21;101528.34;;;21.89;50.70
59043;BME280;44826;51.596;5.624;2022-08-21T12:43:59;101522.63;;;21.95;51.26
59043;BME280;44826;51.596;5.624;2022-08-21T12:46:32;101524.25;;;21.97;50.58
59043;BME280;44826;51.596;5.624;2022-08-21T12:49:08;101524.34;;;21.96;50.00
59043;BME280;44826;51.596;5.624;2022-08-21T12:51:56;101526.53;;;21.89;50.79
59043;BME280;44826;51.596;5.624;2022-08-21T12:54:31;101533.19;;;21.82;50.10
59043;BME280;44826;51.596;5.624;2022-08-21T12:57:02;101526.19;;;21.81;50.93
59043;BME280;44826;51.596;5.624;2022-08-21T12:59:28;101523.13;;;21.87;51.83
59043;BME280;44826;51.596;5.624;2022-08-21T13:01:54;101522.59;;;21.82;49.79
59043;BME280;44826;51.596;5.624;2022-08-21T13:04:41;101524.28;;;21.83;50.80
59043;BME280;44826;51.596;5.624;2022-08-21T13:07:09;101516.59;;;21.78;49.03
59043;BME280;44826;51.596;5.624;2022-08-21T13:09:44;101519.94;;;21.82;50.41
59043;BME280;44826;51.596;5.624;2022-08-21T13:12:12;101523.41;;;21.82;47.74
59043;BME280;44826;51.596;5.624;2022-08-21T13:14:41;101524.09;;;21.86;48.29
59043;BME280;44826;51.596;5.624;2022-08-21T13:17:09;101521.81;;;21.94;49.24
59043;BME280;44826;51.596;5.624;2022-08-21T13:19:35;101513.25;;;22.04;47.59
59043;BME280;44826;51.596;5.624;2022-08-21T13:22:01;101520.44;;;22.16;47.14
59043;BME280;44826;51.596;5.624;2022-08-21T13:24:30;101517.09;;;22.27;47.48
59043;BME280;44826;51.596;5.624;2022-08-21T13:26:57;101519.44;;;22.32;46.51
59043;BME280;44826;51.596;5.624;2022-08-21T13:29:31;101521.78;;;22.36;46.11
59043;BME280;44826;51.596;5.624;2022-08-21T13:31:59;101521.16;;;22.33;45.97
59043;BME280;44826;51.596;5.624;2022-08-21T13:34:30;101519.44;;;22.32;47.13
59043;BME280;44826;51.596;5.624;2022-08-21T13:36:59;101522.84;;;22.34;48.20
59043;BME280;44826;51.596;5.624;2022-08-21T13:39:25;101520.78;;;22.24;46.50
59043;BME280;44826;51.596;5.624;2022-08-21T13:41:55;101521.56;;;22.12;47.22
59043;BME280;44826;51.596;5.624;2022-08-21T13:44:24;101523.13;;;22.02;48.67
59043;BME280;44826;51.596;5.624;2022-08-21T13:46:58;101523.69;;;21.92;48.60